Time;durP1;ratioP1;P1;durP2;ratioP2;P2;SDS_P1;SDS_P2;PMS_P1;PMS_P2;Temp;Humidity;BMP_temperature;BMP_pressure;BME280_temperature;BME280_humidity;BME280_pressure;Samples;Min_cycle;Max_cycle;Signal;HPM_P1;HPM_P2
2021/05/12 00:01:38;;;;;;;2.80;2.50;;;;;;;22.08;60.95;99633.34;4923271;28;126817;-62
2021/05/12 00:04:04;;;;;;;2.65;2.35;;;;;;;22.07;61.07;99629.81;4941193;28;126301;-62
2021/05/12 00:06:30;;;;;;;2.30;2.13;;;;;;;22.05;60.92;99632.94;4948200;28;97894;-68
2021/05/12 00:08:56;;;;;;;2.85;2.63;;;;;;;22.03;60.88;99629.75;4942958;28;128512;-62
2021/05/12 00:11:22;;;;;;;2.90;2.65;;;;;;;22.02;60.88;99636.41;4947644;28;123357;-62
2021/05/12 00:13:48;;;;;;;2.95;2.65;;;;;;;22.01;60.89;99642.28;4953135;28;119361;-69
2021/05/12 00:16:14;;;;;;;2.90;2.70;;;;;;;22.02;60.84;99643.84;4943285;28;98163;-62
2021/05/12 00:18:43;;;;;;;2.83;2.63;;;;;;;21.98;60.93;99651.22;4943110;28;125181;-62
2021/05/12 00:21:13;;;;;;;3.03;2.83;;;;;;;21.96;61.09;99646.09;4957000;28;98846;-62
2021/05/12 00:23:47;;;;;;;2.92;2.60;;;;;;;21.95;61.08;99646.47;4942107;28;97827;-62
2021/05/12 00:26:13;;;;;;;3.33;2.60;;;;;;;21.88;61.05;99646.31;4912983;28;98339;-62
2021/05/12 00:28:39;;;;;;;2.72;2.25;;;;;;;21.87;61.17;99642.78;4942090;28;127303;-62
2021/05/12 00:31:05;;;;;;;3.00;2.70;;;;;;;21.88;60.97;99654.53;4942691;28;99449;-69
2021/05/12 00:33:31;;;;;;;2.72;2.53;;;;;;;21.85;60.97;99655.25;4942050;28;127258;-69
2021/05/12 00:35:57;;;;;;;3.15;2.50;;;;;;;21.84;61.19;99656.44;4949874;28;110671;-69
2021/05/12 00:38:23;;;;;;;2.78;2.50;;;;;;;21.80;60.94;99656.34;4954462;28;128530;-69
2021/05/12 00:40:50;;;;;;;3.00;2.53;;;;;;;21.79;61.06;99652.03;4924209;28;126043;-62
2021/05/12 00:43:16;;;;;;;3.22;2.78;;;;;;;21.76;60.85;99659.03;4942428;28;98438;-68
2021/05/12 00:45:42;;;;;;;3.17;2.85;;;;;;;21.74;61.11;99661.34;4951041;28;101608;-62
2021/05/12 00:48:08;;;;;;;3.35;2.85;;;;;;;21.76;61.15;99664.50;4944727;28;117547;-69
2021/05/12 00:50:34;;;;;;;3.83;3.03;;;;;;;21.73;60.95;99669.91;4948404;28;98436;-62
2021/05/12 00:53:00;;;;;;;3.90;2.75;;;;;;;21.69;61.34;99666.31;4946573;28;126571;-69
2021/05/12 00:55:27;;;;;;;3.83;2.95;;;;;;;21.65;61.30;99662.72;4943439;28;98776;-69
2021/05/12 00:57:53;;;;;;;3.10;2.80;;;;;;;21.64;61.23;99670.13;4887645;28;114553;-69
2021/05/12 01:00:23;;;;;;;4.10;3.10;;;;;;;21.67;61.13;99663.94;4933683;28;121276;-62
2021/05/12 01:02:49;;;;;;;3.63;2.83;;;;;;;21.65;61.27;99679.94;4917122;28;98668;-69
2021/05/12 01:05:48;;;;;;;3.45;3.15;;;;;;;21.57;60.91;99678.22;4934062;28;110826;-61
2021/05/12 01:08:15;;;;;;;4.28;3.13;;;;;;;21.58;61.44;99682.56;4937941;28;98474;-69
2021/05/12 01:10:41;;;;;;;5.13;3.50;;;;;;;21.54;61.50;99687.19;4912029;28;118204;-69
2021/05/12 01:13:07;;;;;;;3.47;3.10;;;;;;;21.51;61.15;99679.66;4935185;28;127453;-69
2021/05/12 01:15:33;;;;;;;3.90;3.03;;;;;;;21.47;61.32;99676.84;4917316;28;99969;-62
2021/05/12 01:18:18;;;;;;;4.05;3.22;;;;;;;21.42;61.15;99679.88;4925618;28;127820;-70
2021/05/12 01:21:00;;;;;;;3.83;3.42;;;;;;;21.36;61.50;99692.25;4938089;28;103315;-69
2021/05/12 01:23:29;;;;;;;4.15;3.15;;;;;;;21.35;61.65;99693.44;4938193;28;119653;-69
2021/05/12 01:25:55;;;;;;;4.03;3.35;;;;;;;21.31;61.67;99701.53;4941322;28;99039;-62
2021/05/12 01:28:23;;;;;;;3.83;3.42;;;;;;;21.34;61.72;99691.84;4926665;28;106141;-69
2021/05/12 01:31:07;;;;;;;4.03;3.28;;;;;;;21.27;61.77;99686.16;4937311;28;107709;-61
2021/05/12 01:33:34;;;;;;;4.00;3.60;;;;;;;21.23;61.88;99688.03;4907582;28;97887;-69
2021/05/12 01:36:00;;;;;;;3.85;3.10;;;;;;;21.28;62.00;99683.06;4910495;28;98330;-61
2021/05/12 01:38:26;;;;;;;3.35;3.05;;;;;;;21.23;61.73;99677.88;4933013;28;98552;-61
2021/05/12 01:40:53;;;;;;;3.85;3.10;;;;;;;21.24;61.76;99686.88;4940261;28;107986;-69
2021/05/12 01:43:20;;;;;;;3.33;3.03;;;;;;;21.22;61.82;99686.44;4944730;28;97971;-69
2021/05/12 01:45:47;;;;;;;3.33;3.03;;;;;;;21.16;62.02;99698.84;4924077;28;97770;-69
2021/05/12 01:48:13;;;;;;;3.33;3.03;;;;;;;21.16;61.97;99688.66;4926616;28;98343;-62
2021/05/12 01:50:39;;;;;;;3.63;2.83;;;;;;;21.14;62.05;99690.16;4944153;28;99282;-69
2021/05/12 01:53:06;;;;;;;3.08;2.80;;;;;;;21.11;62.09;99686.22;4938804;28;98025;-62
2021/05/12 01:55:32;;;;;;;2.95;2.70;;;;;;;21.09;62.15;99689.28;4945059;28;97767;-69
2021/05/12 01:57:58;;;;;;;3.92;2.72;;;;;;;21.11;62.06;99702.66;4949676;28;116814;-69
2021/05/12 02:00:30;;;;;;;3.00;2.60;;;;;;;21.11;61.90;99691.69;4962235;28;128793;-62
2021/05/12 02:02:57;;;;;;;2.92;2.58;;;;;;;21.07;62.25;99688.88;4945352;28;97974;-62
2021/05/12 02:05:24;;;;;;;2.95;2.65;;;;;;;21.07;62.33;99688.06;4963222;28;104419;-62
2021/05/12 02:07:58;;;;;;;3.08;2.80;;;;;;;21.02;62.13;99691.84;4929588;28;97876;-62
2021/05/12 02:10:24;;;;;;;3.38;2.60;;;;;;;21.04;62.05;99678.63;4946100;28;98668;-62
2021/05/12 02:12:51;;;;;;;2.78;2.58;;;;;;;20.98;62.48;99681.97;4916059;28;107869;-63
2021/05/12 02:15:17;;;;;;;2.47;2.25;;;;;;;20.99;62.33;99686.31;4944886;28;97955;-63
2021/05/12 02:17:43;;;;;;;2.58;2.38;;;;;;;20.96;62.34;99679.59;4942400;28;125243;-62
2021/05/12 02:20:11;;;;;;;2.97;2.55;;;;;;;21.00;62.23;99682.41;4925921;28;98594;-69
2021/05/12 02:22:38;;;;;;;2.92;2.63;;;;;;;20.95;62.20;99694.44;4938858;28;98357;-70
2021/05/12 02:25:05;;;;;;;2.47;2.28;;;;;;;20.93;62.30;99693.22;4956964;28;97955;-70
2021/05/12 02:27:31;;;;;;;2.90;2.60;;;;;;;20.91;62.47;99695.53;4943999;28;115046;-70
2021/05/12 02:30:01;;;;;;;3.58;2.60;;;;;;;20.90;62.38;99699.38;4942924;28;127872;-70
2021/05/12 02:32:30;;;;;;;2.88;2.40;;;;;;;20.85;62.26;99708.66;4943940;28;97848;-69
2021/05/12 02:34:57;;;;;;;2.70;2.47;;;;;;;20.87;62.34;99703.66;4943749;28;108364;-63
2021/05/12 02:37:24;;;;;;;2.78;2.58;;;;;;;20.89;62.34;99703.28;4957784;28;97775;-70
2021/05/12 02:39:51;;;;;;;2.40;2.20;;;;;;;20.89;62.36;99700.53;4954980;28;109097;-70
2021/05/12 02:42:17;;;;;;;2.70;2.50;;;;;;;20.85;62.33;99700.44;4942966;28;127217;-62
2021/05/12 02:44:43;;;;;;;3.42;2.90;;;;;;;20.80;62.60;99693.31;4943906;28;111088;-69
2021/05/12 02:47:09;;;;;;;2.40;2.20;;;;;;;20.79;62.47;99694.47;4947989;28;129064;-63
2021/05/12 02:49:35;;;;;;;2.90;2.53;;;;;;;20.76;62.54;99699.84;4955135;28;128019;-70
2021/05/12 02:52:02;;;;;;;2.47;2.22;;;;;;;20.76;62.67;99699.84;4947456;28;98470;-63
2021/05/12 02:54:28;;;;;;;2.85;2.65;;;;;;;20.75;62.58;99709.19;4943734;28;104377;-63
2021/05/12 02:56:54;;;;;;;3.15;2.70;;;;;;;20.72;62.36;99710.72;4958829;28;127726;-63
2021/05/12 02:59:20;;;;;;;3.83;2.97;;;;;;;20.70;62.62;99712.19;4941548;28;98843;-70
2021/05/12 03:01:46;;;;;;;3.75;2.78;;;;;;;20.70;62.48;99713.00;4942301;28;126872;-63
2021/05/12 03:04:12;;;;;;;3.13;2.65;;;;;;;20.69;62.28;99716.88;4942866;28;101306;-70
2021/05/12 03:06:38;;;;;;;2.85;2.55;;;;;;;20.69;62.88;99725.09;4923573;28;128340;-70
2021/05/12 03:09:06;;;;;;;2.95;2.65;;;;;;;20.68;62.91;99726.25;4924946;28;107153;-71
2021/05/12 03:11:32;;;;;;;2.80;2.60;;;;;;;20.69;62.85;99724.31;4939361;28;114233;-63
2021/05/12 03:13:58;;;;;;;4.00;2.70;;;;;;;20.65;62.82;99732.44;4943975;28;103139;-70
2021/05/12 03:16:24;;;;;;;3.40;3.10;;;;;;;20.63;62.97;99742.13;4942178;28;127679;-70
2021/05/12 03:18:50;;;;;;;3.20;2.90;;;;;;;20.62;62.97;99741.34;4959100;28;126012;-70
2021/05/12 03:21:16;;;;;;;3.00;2.80;;;;;;;20.63;62.96;99736.66;4961383;28;125178;-70
2021/05/12 03:23:42;;;;;;;3.13;2.83;;;;;;;20.61;62.83;99741.72;4943292;28;97915;-63
2021/05/12 03:26:08;;;;;;;3.10;2.80;;;;;;;20.59;62.78;99753.81;4943572;28;119025;-63
2021/05/12 03:28:34;;;;;;;3.47;3.10;;;;;;;20.56;62.83;99756.44;4943968;28;99125;-70
2021/05/12 03:31:01;;;;;;;3.80;2.90;;;;;;;20.53;63.01;99749.72;4942412;28;126301;-70
2021/05/12 03:33:27;;;;;;;4.55;3.42;;;;;;;20.55;63.04;99747.44;4943753;28;98016;-70
2021/05/12 03:35:53;;;;;;;3.45;3.15;;;;;;;20.51;63.21;99743.00;4942431;28;99342;-63
2021/05/12 03:38:19;;;;;;;3.70;3.38;;;;;;;20.53;63.30;99755.19;4942834;28;108941;-63
2021/05/12 03:40:45;;;;;;;3.35;3.05;;;;;;;20.55;63.17;99744.72;4943095;28;99648;-63
2021/05/12 03:43:11;;;;;;;3.03;2.72;;;;;;;20.50;62.93;99747.69;4942706;28;111119;-70
2021/05/12 03:45:37;;;;;;;3.50;3.20;;;;;;;20.54;63.09;99758.72;4947062;28;98569;-70
2021/05/12 03:48:04;;;;;;;4.32;3.67;;;;;;;20.54;63.08;99762.25;4962721;28;98492;-70
2021/05/12 03:50:31;;;;;;;3.67;3.20;;;;;;;20.53;62.97;99759.88;4941356;28;113804;-63
2021/05/12 03:52:56;;;;;;;3.20;2.92;;;;;;;;;;4961770;28;98190;-63
2021/05/12 03:55:23;;;;;;;3.60;3.30;;;;;;;20.53;63.04;99762.63;4962512;28;98181;-63
2021/05/12 03:57:49;;;;;;;3.65;3.35;;;;;;;20.50;62.84;99769.59;4961432;28;101070;-70
2021/05/12 04:00:15;;;;;;;4.63;3.42;;;;;;;;;;4942507;28;97819;-63
2021/05/12 04:02:42;;;;;;;3.83;3.40;;;;;;;20.55;62.85;99772.09;4924493;28;97910;-70
2021/05/12 04:05:09;;;;;;;3.97;3.38;;;;;;;20.51;63.04;99773.13;4942580;28;98872;-63
2021/05/12 04:07:35;;;;;;;3.70;3.40;;;;;;;20.52;63.04;99772.00;4948735;28;117732;-64
2021/05/12 04:10:02;;;;;;;4.30;3.90;;;;;;;20.53;62.89;99770.84;4961540;28;127342;-70
2021/05/12 04:12:28;;;;;;;3.50;3.20;;;;;;;20.48;63.00;99766.38;4961727;28;101664;-70
2021/05/12 04:14:54;;;;;;;3.63;3.33;;;;;;;20.50;63.01;99766.06;4944882;28;128775;-63
2021/05/12 04:17:20;;;;;;;3.92;3.53;;;;;;;20.51;62.94;99768.44;4906671;28;128126;-63
2021/05/12 04:19:46;;;;;;;3.67;3.35;;;;;;;20.50;62.88;99769.59;4942405;28;98471;-70
2021/05/12 04:22:13;;;;;;;3.80;3.45;;;;;;;20.48;63.03;99766.38;4942480;28;112604;-70
2021/05/12 04:24:40;;;;;;;4.20;3.80;;;;;;;20.46;63.03;99759.66;4943622;28;98922;-70
2021/05/12 04:27:06;;;;;;;4.07;3.60;;;;;;;20.48;63.09;99771.84;4943018;28;98848;-70
2021/05/12 04:29:32;;;;;;;4.00;3.60;;;;;;;20.46;63.25;99779.59;4940993;28;98543;-63
2021/05/12 04:31:58;;;;;;;3.65;3.30;;;;;;;20.45;63.11;99778.03;4941350;28;112007;-70
2021/05/12 04:34:24;;;;;;;4.22;3.83;;;;;;;20.41;63.06;99777.13;4942637;28;102282;-71
2021/05/12 04:36:50;;;;;;;3.90;3.50;;;;;;;20.40;63.14;99789.25;4941056;28;127763;-71
2021/05/12 04:39:16;;;;;;;4.10;3.70;;;;;;;20.40;63.34;99791.19;4941758;28;127651;-71
2021/05/12 04:41:42;;;;;;;4.57;4.07;;;;;;;20.41;63.34;99792.75;4947008;28;111146;-71
2021/05/12 04:44:08;;;;;;;4.72;4.30;;;;;;;20.38;63.43;99796.19;4962010;28;99436;-71
2021/05/12 04:46:34;;;;;;;4.10;3.70;;;;;;;20.38;63.52;99799.72;4941757;28;126913;-71
2021/05/12 04:49:05;;;;;;;3.95;3.60;;;;;;;20.40;63.31;99807.59;4924459;28;127757;-70
2021/05/12 04:51:33;;;;;;;4.30;3.90;;;;;;;20.38;63.29;99810.66;4959368;28;97902;-63
2021/05/12 04:54:03;;;;;;;4.28;3.50;;;;;;;20.38;63.55;99807.13;4938111;28;101192;-71
2021/05/12 04:56:29;;;;;;;3.85;3.50;;;;;;;20.40;63.39;99802.13;4936339;28;98377;-64
2021/05/12 04:58:55;;;;;;;4.43;4.03;;;;;;;20.39;63.49;99806.78;4956713;28;128190;-70
2021/05/12 05:01:21;;;;;;;4.55;3.72;;;;;;;20.40;63.28;99813.06;4961091;28;98150;-64
2021/05/12 05:03:48;;;;;;;4.50;4.10;;;;;;;20.42;63.36;99814.28;4961068;28;98656;-70
2021/05/12 05:06:15;;;;;;;4.22;3.83;;;;;;;20.42;63.33;99813.50;4955715;28;98809;-64
2021/05/12 05:08:41;;;;;;;4.38;3.95;;;;;;;20.40;63.54;99822.06;4955680;28;97904;-64
2021/05/12 05:11:07;;;;;;;4.32;3.50;;;;;;;20.40;63.62;99813.88;4961023;28;102692;-71
2021/05/12 05:13:33;;;;;;;4.50;3.90;;;;;;;20.41;63.43;99807.25;4954782;28;127776;-71
2021/05/12 05:15:59;;;;;;;4.60;4.15;;;;;;;20.42;63.41;99813.50;4960584;28;128148;-64
2021/05/12 05:18:25;;;;;;;4.10;3.70;;;;;;;20.40;63.49;99802.13;4943555;28;98066;-64
2021/05/12 05:20:54;;;;;;;3.83;3.53;;;;;;;20.37;63.62;99803.59;4961294;28;112035;-70
2021/05/12 05:23:20;;;;;;;4.20;3.75;;;;;;;20.41;63.49;99809.19;4942473;28;98394;-64
2021/05/12 05:25:47;;;;;;;4.28;3.67;;;;;;;20.39;63.47;99806.78;4941941;28;116411;-71
2021/05/12 05:28:13;;;;;;;4.00;3.60;;;;;;;20.38;63.50;99818.09;4955085;28;98597;-72
2021/05/12 05:30:39;;;;;;;5.30;3.97;;;;;;;20.38;63.47;99824.34;4959046;28;106592;-70
2021/05/12 05:33:05;;;;;;;4.30;3.90;;;;;;;20.32;63.64;99829.28;4961411;28;98349;-64
2021/05/12 05:35:31;;;;;;;4.38;3.63;;;;;;;20.35;64.02;99842.25;4942847;28;99318;-71
2021/05/12 05:37:57;;;;;;;4.63;3.90;;;;;;;20.30;63.53;99842.50;4939290;28;127579;-70
2021/05/12 05:40:27;;;;;;;4.03;3.65;;;;;;;20.31;63.52;99843.31;4942291;28;113552;-64
2021/05/12 05:43:02;;;;;;;5.80;3.80;;;;;;;20.29;63.45;99838.19;4960025;28;99095;-70
2021/05/12 05:45:28;;;;;;;4.63;3.90;;;;;;;20.29;63.71;99838.19;4943279;28;99354;-70
2021/05/12 05:47:54;;;;;;;5.95;3.72;;;;;;;20.27;63.61;99842.41;4960202;28;98019;-70
2021/05/12 05:50:21;;;;;;;3.75;3.40;;;;;;;20.30;63.59;99836.25;4942281;28;113119;-70
2021/05/12 05:52:48;;;;;;;5.20;3.65;;;;;;;20.29;63.34;99851.88;4963823;28;98177;-70
2021/05/12 05:55:14;;;;;;;3.55;3.22;;;;;;;20.36;63.34;99854.03;4960402;28;99030;-70
2021/05/12 05:57:40;;;;;;;4.25;3.33;;;;;;;20.46;63.11;99847.25;4940208;28;127606;-64
2021/05/12 06:00:07;;;;;;;3.47;3.17;;;;;;;20.53;62.89;99855.69;4930857;28;98115;-70
2021/05/12 06:02:35;;;;;;;3.85;3.47;;;;;;;20.59;62.77;99848.81;4955811;28;98413;-64
2021/05/12 06:05:04;;;;;;;4.00;3.60;;;;;;;20.61;62.34;99849.25;4925722;28;99667;-70
2021/05/12 06:07:31;;;;;;;4.72;3.45;;;;;;;20.66;62.58;99859.16;4945174;28;98071;-64
2021/05/12 06:09:57;;;;;;;4.43;3.38;;;;;;;20.68;62.40;99859.63;4961367;28;98013;-70
2021/05/12 06:12:23;;;;;;;3.88;3.08;;;;;;;20.65;62.34;99866.59;4958631;28;102245;-64
2021/05/12 06:14:49;;;;;;;4.80;3.13;;;;;;;20.67;62.52;99863.50;4960944;28;97782;-70
2021/05/12 06:17:15;;;;;;;3.55;3.15;;;;;;;20.66;62.31;99868.16;4959456;28;98039;-64
2021/05/12 06:19:41;;;;;;;3.78;3.28;;;;;;;20.65;62.45;99866.59;4957689;28;111723;-64
2021/05/12 06:22:07;;;;;;;4.28;3.30;;;;;;;20.65;62.54;99865.78;4952010;28;127217;-70
2021/05/12 06:24:33;;;;;;;3.97;3.40;;;;;;;20.67;62.63;99869.78;4961702;28;98873;-64
2021/05/12 06:27:01;;;;;;;3.60;3.30;;;;;;;20.71;62.51;99858.91;4915113;28;99023;-70
2021/05/12 06:29:27;;;;;;;3.50;2.90;;;;;;;20.73;62.45;99864.84;4941396;28;98275;-70
2021/05/12 06:31:53;;;;;;;3.30;3.00;;;;;;;20.73;62.57;99860.16;4959529;28;128008;-64
2021/05/12 06:34:19;;;;;;;3.92;3.10;;;;;;;20.74;62.50;99861.75;4956227;28;128094;-70
2021/05/12 06:36:45;;;;;;;3.92;3.38;;;;;;;20.80;62.37;99862.31;4949935;28;125110;-70
2021/05/12 06:39:11;;;;;;;4.05;3.03;;;;;;;20.82;62.28;99866.25;4935368;28;98091;-64
2021/05/12 06:41:37;;;;;;;4.35;3.05;;;;;;;20.77;62.53;99863.00;4924799;28;118700;-64
2021/05/12 06:44:05;;;;;;;3.33;2.90;;;;;;;20.76;62.55;99859.47;4960864;28;98509;-73
2021/05/12 06:46:31;;;;;;;3.22;2.88;;;;;;;20.78;62.63;99850.88;4937788;28;98133;-71
2021/05/12 06:48:57;;;;;;;3.80;3.10;;;;;;;20.81;62.62;99833.75;4952256;28;98591;-71
2021/05/12 06:51:23;;;;;;;3.90;3.00;;;;;;;20.81;62.45;99848.25;4941464;28;98962;-71
2021/05/12 06:53:50;;;;;;;3.60;2.83;;;;;;;20.79;62.62;99845.06;4957988;28;100097;-73
2021/05/12 06:56:16;;;;;;;3.70;3.03;;;;;;;20.81;62.71;99842.78;4947426;28;98714;-64
2021/05/12 06:58:42;;;;;;;3.25;2.95;;;;;;;20.86;62.84;99847.19;4952579;28;102412;-65
2021/05/12 07:01:10;;;;;;;5.15;3.13;;;;;;;20.85;62.85;99851.09;4942078;28;98071;-72
2021/05/12 07:03:36;;;;;;;4.53;3.30;;;;;;;20.87;62.83;99854.28;4958596;28;99107;-72
2021/05/12 07:06:02;;;;;;;4.53;3.05;;;;;;;20.83;63.11;99851.44;4957708;28;97948;-72
2021/05/12 07:08:29;;;;;;;5.03;3.25;;;;;;;20.83;63.01;99856.13;4960678;28;98137;-64
2021/05/12 07:10:55;;;;;;;3.65;3.15;;;;;;;20.79;63.08;99855.25;4957108;28;98672;-65
2021/05/12 07:13:21;;;;;;;3.67;3.28;;;;;;;20.82;62.91;99857.25;4955293;28;120670;-72
2021/05/12 07:15:47;;;;;;;3.47;3.17;;;;;;;20.81;63.03;99864.69;4958117;28;126094;-72
2021/05/12 07:18:13;;;;;;;3.97;3.00;;;;;;;20.78;63.34;99857.16;4947851;28;98400;-73
2021/05/12 07:20:39;;;;;;;3.88;3.33;;;;;;;20.82;63.16;99857.25;4916555;28;98646;-64
2021/05/12 07:23:09;;;;;;;3.95;3.47;;;;;;;20.83;63.05;99853.38;4951978;28;98382;-71
2021/05/12 07:25:36;;;;;;;3.55;3.25;;;;;;;20.87;63.04;99861.66;4959362;28;97934;-71
2021/05/12 07:28:03;;;;;;;4.30;3.22;;;;;;;20.94;63.06;99848.97;4947600;28;98216;-72
2021/05/12 07:30:29;;;;;;;4.38;3.28;;;;;;;21.01;62.77;99851.09;4940802;28;98595;-65
2021/05/12 07:32:55;;;;;;;3.90;3.20;;;;;;;21.04;62.65;99848.47;4959151;28;121758;-71
2021/05/12 07:35:21;;;;;;;3.90;3.50;;;;;;;21.25;62.25;99845.44;4956635;28;125564;-72
2021/05/12 07:37:48;;;;;;;3.30;2.97;;;;;;;21.45;61.79;99843.63;4954228;28;98141;-65
2021/05/12 07:40:14;;;;;;;3.88;3.47;;;;;;;21.73;61.01;99831.72;4959182;28;98760;-65
2021/05/12 07:42:43;;;;;;;4.47;3.20;;;;;;;21.81;61.01;99831.53;4952778;28;110297;-65
2021/05/12 07:45:11;;;;;;;5.70;3.30;;;;;;;21.73;61.51;99831.72;4959393;28;97967;-72
2021/05/12 07:47:37;;;;;;;4.68;3.28;;;;;;;21.67;61.65;99827.69;4954241;28;98160;-72
2021/05/12 07:50:09;;;;;;;4.75;3.55;;;;;;;21.60;61.94;99817.34;4948452;28;107024;-65
2021/05/12 07:52:35;;;;;;;6.75;3.28;;;;;;;21.56;61.88;99816.47;4952938;28;98243;-65
2021/05/12 07:55:01;;;;;;;3.97;3.22;;;;;;;21.52;62.12;99823.81;4951782;28;123452;-72
2021/05/12 07:57:27;;;;;;;3.70;3.30;;;;;;;21.43;62.45;99829.47;4953529;28;105843;-65
2021/05/12 07:59:53;;;;;;;4.95;3.30;;;;;;;21.44;62.45;99822.84;4915688;28;128311;-65
2021/05/12 08:02:19;;;;;;;4.53;3.50;;;;;;;21.42;62.58;99825.16;4947750;28;102448;-65
2021/05/12 08:04:45;;;;;;;3.67;3.38;;;;;;;21.36;62.82;99836.75;4932838;28;102144;-65
2021/05/12 08:07:11;;;;;;;3.95;3.22;;;;;;;21.35;62.51;99840.63;4940622;28;97910;-65
2021/05/12 08:09:37;;;;;;;3.90;3.53;;;;;;;21.31;62.70;99843.25;4940513;28;98587;-72
2021/05/12 08:12:04;;;;;;;3.67;3.38;;;;;;;21.27;62.70;99834.16;4957435;28;112344;-65
2021/05/12 08:14:30;;;;;;;4.00;3.50;;;;;;;21.22;62.94;99837.13;4955283;28;111446;-65
2021/05/12 08:16:56;;;;;;;4.40;3.50;;;;;;;21.24;62.75;99830.16;4958527;28;98070;-65
2021/05/12 08:19:22;;;;;;;4.50;3.92;;;;;;;21.16;62.82;99822.13;4952633;28;98755;-71
2021/05/12 08:21:49;;;;;;;4.03;3.67;;;;;;;21.13;63.05;99814.59;4955304;28;127625;-71
2021/05/12 08:24:15;;;;;;;4.63;3.60;;;;;;;21.14;62.97;99806.03;4932950;28;127423;-71
2021/05/12 08:26:41;;;;;;;4.30;3.90;;;;;;;21.40;62.13;99807.47;4934080;28;98028;-65
2021/05/12 08:29:07;;;;;;;4.18;3.60;;;;;;;21.42;61.96;99803.22;4955818;28;128004;-65
2021/05/12 08:31:34;;;;;;;5.65;4.13;;;;;;;21.58;61.65;99805.94;4952165;28;98763;-72
2021/05/12 08:34:01;;;;;;;4.45;4.00;;;;;;;21.88;60.56;99802.66;4954453;28;98777;-65
2021/05/12 08:36:27;;;;;;;5.32;3.60;;;;;;;22.23;59.71;99799.91;4942496;28;98234;-65
2021/05/12 08:38:53;;;;;;;4.25;3.80;;;;;;;22.57;58.90;99797.44;4928234;28;107297;-65
2021/05/12 08:41:19;;;;;;;4.97;3.92;;;;;;;22.78;57.97;99798.59;4957703;28;115909;-72
2021/05/12 08:43:46;;;;;;;3.80;3.40;;;;;;;22.79;58.36;99797.47;4958150;28;112199;-72
2021/05/12 08:46:16;;;;;;;5.88;3.40;;;;;;;22.77;58.52;99816.25;4958265;28;97981;-72
2021/05/12 08:48:42;;;;;;;4.30;3.90;;;;;;;22.79;59.12;99813.94;4938296;28;114977;-65
2021/05/12 08:51:10;;;;;;;4.75;3.85;;;;;;;22.72;59.26;99816.56;4924729;28;118415;-65
2021/05/12 08:53:36;;;;;;;4.10;3.67;;;;;;;22.66;59.37;99807.00;4938583;28;100429;-72
2021/05/12 08:56:04;;;;;;;5.15;3.50;;;;;;;22.53;60.10;99820.13;4960278;28;98053;-72
2021/05/12 08:58:31;;;;;;;5.75;3.63;;;;;;;22.50;60.20;99822.78;4957778;28;113710;-71
2021/05/12 09:00:57;;;;;;;3.50;3.13;;;;;;;22.52;60.24;99810.28;4960176;28;98239;-65
2021/05/12 09:03:26;;;;;;;7.00;3.35;;;;;;;22.53;60.03;99816.56;4959647;28;112763;-65
2021/05/12 09:05:52;;;;;;;3.58;3.10;;;;;;;22.47;60.40;99820.75;4924309;28;98485;-65
2021/05/12 09:08:19;;;;;;;3.97;3.25;;;;;;;22.41;60.54;99814.00;4955375;28;98413;-71
2021/05/12 09:10:45;;;;;;;3.42;3.10;;;;;;;22.54;60.13;99812.66;4942852;28;106490;-65
2021/05/12 09:13:30;;;;;;;4.25;3.58;;;;;;;22.43;60.43;99806.19;4960121;28;127401;-65
2021/05/12 09:16:30;;;;;;;4.35;3.17;;;;;;;22.39;60.65;99808.84;4945941;28;97948;-65
2021/05/12 09:19:11;;;;;;;4.97;3.10;;;;;;;22.46;60.09;99802.72;4943417;28;99478;-65
2021/05/12 09:21:51;;;;;;;3.50;2.92;;;;;;;22.58;59.11;99791.56;4942158;28;98674;-73
2021/05/12 09:24:33;;;;;;;4.82;3.08;;;;;;;22.63;58.85;99802.22;4961548;28;97927;-65
2021/05/12 09:27:03;;;;;;;3.25;2.95;;;;;;;22.51;59.58;99792.22;4943647;28;98319;-65
2021/05/12 09:29:36;;;;;;;4.43;3.03;;;;;;;22.42;60.06;99813.63;4927580;28;98253;-65
2021/05/12 09:32:07;;;;;;;3.80;3.10;;;;;;;22.31;60.51;99818.09;4956384;28;98227;-65
2021/05/12 09:34:51;;;;;;;3.45;2.92;;;;;;;22.19;60.74;99829.22;4960399;28;98210;-72
2021/05/12 09:37:33;;;;;;;3.75;2.90;;;;;;;22.07;61.15;99821.91;4959989;28;98156;-65
2021/05/12 09:40:04;;;;;;;4.53;3.03;;;;;;;22.01;61.48;99826.88;4959487;28;98273;-65
2021/05/12 09:42:30;;;;;;;3.50;3.00;;;;;;;21.94;61.50;99834.94;4935057;28;98910;-71
2021/05/12 09:45:22;;;;;;;3.15;2.85;;;;;;;21.97;61.40;99823.28;4938861;28;126625;-73
2021/05/12 09:47:54;;;;;;;;;;;;;;;21.95;61.18;99819.28;4960089;28;98081;-71
2021/05/12 09:50:25;;;;;;;3.10;2.60;;;;;;;21.91;61.68;99829.38;4962562;28;99270;-72
2021/05/12 09:52:56;;;;;;;3.42;2.72;;;;;;;21.92;61.69;99833.72;4956885;28;98462;-63
2021/05/12 09:55:45;;;;;;;3.20;2.90;;;;;;;21.87;61.43;99829.31;4960006;28;97756;-70
2021/05/12 09:58:12;;;;;;;3.38;2.88;;;;;;;21.98;61.28;99838.56;4955094;28;98189;-63
2021/05/12 10:00:39;;;;;;;3.72;2.85;;;;;;;22.02;61.43;99827.69;4958845;28;98350;-62
2021/05/12 10:03:06;;;;;;;3.60;2.90;;;;;;;21.98;61.42;99835.03;4941003;28;116252;-69
2021/05/12 10:06:02;;;;;;;3.47;2.60;;;;;;;22.01;61.27;99831.56;4956876;28;97895;-71
2021/05/12 10:08:35;;;;;;;2.80;2.53;;;;;;;21.96;61.59;99834.59;4956659;28;98284;-71
2021/05/12 10:11:06;;;;;;;4.05;3.05;;;;;;;21.98;61.56;99830.34;4934063;28;98317;-71
2021/05/12 10:13:34;;;;;;;2.90;2.53;;;;;;;21.98;61.42;99826.81;4952307;28;98017;-64
2021/05/12 10:16:00;;;;;;;2.90;2.70;;;;;;;22.02;61.42;99825.72;4958944;28;115234;-72
2021/05/12 10:18:27;;;;;;;3.17;2.85;;;;;;;22.02;61.40;99814.75;4956809;28;98102;-65
2021/05/12 10:20:57;;;;;;;3.15;2.90;;;;;;;21.98;61.56;99829.53;4923633;28;127862;-72
2021/05/12 10:23:23;;;;;;;3.17;2.50;;;;;;;21.94;61.54;99832.22;4942035;28;98187;-72
2021/05/12 10:25:49;;;;;;;3.72;3.20;;;;;;;21.96;61.24;99838.13;4946745;28;107221;-65
2021/05/12 10:28:15;;;;;;;2.90;2.70;;;;;;;21.91;61.64;99832.13;4940041;28;98041;-72
2021/05/12 10:30:41;;;;;;;3.13;2.60;;;;;;;21.94;61.53;99847.88;4936428;28;125205;-64
2021/05/12 10:33:11;;;;;;;3.30;2.50;;;;;;;21.97;61.47;99845.22;4940217;28;128030;-65
2021/05/12 10:35:39;;;;;;;3.55;2.30;;;;;;;22.02;61.21;99844.13;4956023;28;98052;-64
2021/05/12 10:38:06;;;;;;;3.05;2.75;;;;;;;22.01;61.36;99843.34;4957446;28;98575;-64
2021/05/12 10:40:38;;;;;;;3.38;3.00;;;;;;;21.98;61.25;99840.53;4934981;28;98984;-71
2021/05/12 10:43:19;;;;;;;2.90;2.70;;;;;;;21.94;61.30;99839.66;4948675;28;99169;-72
2021/05/12 10:45:50;;;;;;;3.25;2.95;;;;;;;21.89;61.66;99834.41;4956999;28;98239;-71
2021/05/12 10:48:39;;;;;;;3.67;2.83;;;;;;;21.91;61.29;99838.41;4955605;28;98918;-71
2021/05/12 10:51:26;;;;;;;3.47;3.17;;;;;;;21.98;61.42;99827.59;4958815;28;98714;-64
2021/05/12 10:54:04;;;;;;;4.25;3.08;;;;;;;22.02;61.40;99835.91;4949197;28;98449;-72
2021/05/12 10:56:35;;;;;;;4.45;2.95;;;;;;;21.99;61.40;99840.16;4954726;28;98222;-65
2021/05/12 10:59:08;;;;;;;3.80;2.80;;;;;;;22.06;61.30;99839.53;4959180;28;97902;-71
2021/05/12 11:01:42;;;;;;;3.88;3.17;;;;;;;22.22;60.82;99834.78;4958690;28;98959;-65
2021/05/12 11:04:15;;;;;;;3.13;2.80;;;;;;;22.34;60.23;99827.56;4940405;28;97868;-72
2021/05/12 11:06:41;;;;;;;3.28;2.72;;;;;;;22.37;60.43;99826.84;4932603;28;98513;-72
2021/05/12 11:09:17;;;;;;;3.10;2.80;;;;;;;22.27;60.44;99829.00;4956326;28;97871;-71
2021/05/12 11:11:48;;;;;;;3.38;3.03;;;;;;;22.17;60.98;99837.84;4947862;28;98784;-72
2021/05/12 11:14:25;;;;;;;3.38;3.08;;;;;;;22.16;61.15;99840.91;4956299;28;98356;-71
2021/05/12 11:17:07;;;;;;;3.65;3.15;;;;;;;22.09;61.38;99840.75;4952062;28;98104;-72
2021/05/12 11:22:47;;;;;;;4.43;3.50;;;;;;;21.97;61.58;99856.19;4946472;28;98706;-64
2021/05/12 11:33:31;;;;;;;4.20;3.35;;;;;;;21.85;62.14;99848.09;4947631;28;98247;-64
2021/05/12 11:36:03;;;;;;;3.88;3.47;;;;;;;21.81;62.28;99842.50;4916433;28;99064;-65
2021/05/12 11:38:30;;;;;;;3.88;3.58;;;;;;;21.86;62.05;99843.38;4952332;28;98736;-64
2021/05/12 11:41:09;;;;;;;3.75;3.35;;;;;;;21.78;61.81;99842.44;4952815;28;98013;-72
2021/05/12 11:43:42;;;;;;;3.50;3.20;;;;;;;21.72;62.37;99843.84;4956319;28;98526;-72
2021/05/12 11:46:21;;;;;;;3.85;3.53;;;;;;;21.67;62.44;99852.34;4939151;28;99685;-72
2021/05/12 11:48:52;;;;;;;3.70;3.40;;;;;;;21.64;62.55;99853.06;4951072;28;98062;-64